Saturday, April 19, 2014, 1:09 PM EDT

KPTW, Pottstown Limerick Airport

Location: Royersford, PA, United States Lat: 40.233
Local Time: 1:09 PM EDT (17:09 GMT) Lon: -75.55
Time Zone: US/Eastern Elev: 291 ft

Show me the last for .
Show Decoded

2014-04-19 11:54 METAR KPTW 191554Z AUTO 36012G18KT 10SM CLR 15/M01 A3030 RMK AO2 SLP259
                 T01501006 =
2014-04-19 10:54 METAR KPTW 191454Z AUTO 36008KT 10SM CLR 14/01 A3031 RMK AO2 SLP263 T01440011
                 51007 =
2014-04-19 09:54 METAR KPTW 191354Z AUTO 36011KT 10SM CLR 13/01 A3031 RMK AO2 SLP261 T01280011 =
2014-04-19 08:54 METAR KPTW 191254Z AUTO 34007KT 10SM CLR 12/03 A3030 RMK AO2 SLP258 T01170033 =
2014-04-19 07:54 METAR KPTW 191154Z AUTO 00000KT 10SM CLR 08/03 A3029 RMK AO2 SLP256 T00780028
                 10078 20022 53013 =
2014-04-19 06:54 METAR KPTW 191054Z AUTO 00000KT 10SM CLR 04/01 A3027 RMK AO2 SLP249 T00390011 =
2014-04-19 05:54 METAR KPTW 190954Z AUTO 00000KT 10SM CLR 03/01 A3025 RMK AO2 SLP243 T00280006 =
2014-04-19 04:54 METAR KPTW 190854Z AUTO 00000KT 10SM CLR 03/01 A3025 RMK AO2 SLP244 T00330006
                 56005 =
2014-04-19 03:54 METAR KPTW 190754Z AUTO 00000KT 10SM CLR 04/01 A3026 RMK AO2 SLP245 T00440011 =
2014-04-19 02:54 METAR KPTW 190654Z AUTO 33003KT 10SM CLR 05/01 A3026 RMK AO2 SLP247 T00500006 =
2014-04-19 01:54 METAR KPTW 190554Z AUTO 00000KT 10SM CLR 05/01 A3027 RMK AO2 SLP249 T00500011
                 10100 20050 56007 =
2014-04-19 00:54 METAR KPTW 190454Z AUTO 00000KT 10SM CLR 07/01 A3028 RMK AO2 SLP252 T00720006
                 401170017 =
2014-04-18 23:54 METAR KPTW 190354Z AUTO 00000KT 10SM CLR 07/01 A3028 RMK AO2 SLP253 T00670006 =
2014-04-18 22:54 METAR KPTW 190254Z AUTO 00000KT 10SM CLR 07/01 A3029 RMK AO2 SLP257 T00720006
                 58001 =
2014-04-18 21:54 METAR KPTW 190154Z AUTO 00000KT 10SM CLR 08/01 A3029 RMK AO2 SLP258 T00780011 =
2014-04-18 20:54 METAR KPTW 190054Z AUTO 00000KT 10SM CLR 08/01 A3030 RMK AO2 SLP259 T00830011 =
2014-04-18 19:54 METAR KPTW 182354Z AUTO 00000KT 10SM CLR 10/00 A3029 RMK AO2 SLP258 T01000000
                 10117 20083 56018 =
2014-04-18 18:54 METAR KPTW 182254Z AUTO 10003KT 10SM CLR 11/M01 A3030 RMK AO2 SLP260 T01061006 =
2014-04-18 17:54 METAR KPTW 182154Z AUTO VRB04KT 10SM CLR 11/M01 A3033 RMK AO2 SLP269 T01111006 =
2014-04-18 16:54 METAR KPTW 182054Z AUTO 00000KT 10SM CLR 11/00 A3035 RMK AO2 SLP276 T01110000
                 56030 =
2014-04-18 15:54 METAR KPTW 181954Z AUTO 08003KT 10SM CLR 10/M01 A3037 RMK AO2 SLP283 T01001006 =
2014-04-18 14:54 METAR KPTW 181854Z AUTO VRB06KT 10SM CLR 09/00 A3040 RMK AO2 SLP292 T00940000 =
2014-04-18 13:54 METAR KPTW 181754Z AUTO VRB03KT 10SM CLR 08/M01 A3044 RMK AO2 SLP306 T00781006
                 10083 20028 58019 =

Support USWX by starting your Amazon purchase here.